Maunaloa, Hawaii
Current Conditions -  °F | °C
As of 1:54 PM on Monday 22 Dec 2014 (Local Time) from PHMK Reporting Station
Broken Clouds Broken Clouds  
Wind Chill: 76°   Ceiling: 3800
Heat Index: 76°   Visibility: 10mi
Dew Point: 68°   Wind: 13mph
Humidity: 76%   Direction: 350°N
Pressure: 29.96"   Gusts: 21mph
Location:  21.13°N, 157.21°W
Report Text: PHMK 222354Z 35011G18KT 10SM FEW018 BKN038 BKN100 24/20 A2996 RMK AO2 SLP150 60001 T02440200 10256 20217 58026
Loading
Personal Weather Stations






























Interactive Weather Map New forecast layout! Learn more

10-Day Weather Forecast

Advertisements
Track Severe Weather on mobile